createdAt,value
2023-04-17T00:00:43.444Z,14.02
2023-04-17T00:02:45.386Z,12.65
2023-04-17T00:04:47.379Z,12.15
2023-04-17T00:06:49.597Z,12.50
2023-04-17T00:08:51.283Z,12.23
2023-04-17T00:11:00.655Z,12.05
2023-04-17T00:13:09.232Z,11.10
2023-04-17T00:15:11.254Z,12.10
2023-04-17T00:17:12.989Z,12.98
2023-04-17T00:19:14.681Z,11.05
2023-04-17T00:21:16.345Z,12.05
2023-04-17T00:23:18.035Z,12.55
2023-04-17T00:25:19.680Z,11.75
2023-04-17T00:27:21.513Z,11.35
2023-04-17T00:29:23.421Z,22.40
2023-04-17T00:31:25.068Z,12.02
2023-04-17T00:33:26.753Z,11.65
2023-04-17T00:35:28.410Z,11.38
2023-04-17T00:37:30.023Z,12.52
2023-04-17T00:39:31.788Z,12.38
2023-04-17T00:41:33.436Z,12.18
2023-04-17T00:43:35.398Z,11.45
2023-04-17T00:45:37.139Z,11.43
2023-04-17T00:47:39.234Z,11.30
2023-04-17T00:49:40.999Z,12.23
2023-04-17T00:51:42.818Z,11.63
2023-04-17T00:53:44.601Z,12.75
2023-04-17T00:55:48.407Z,12.18
2023-04-17T00:57:50.900Z,10.98
2023-04-17T00:59:53.052Z,10.32
2023-04-17T01:01:54.930Z,10.95
2023-04-17T01:03:56.981Z,10.85
2023-04-17T01:05:59.102Z,11.30
2023-04-17T01:08:00.802Z,10.85
2023-04-17T01:10:03.257Z,11.77
2023-04-17T01:12:21.513Z,12.75
2023-04-17T01:14:23.200Z,11.50
2023-04-17T01:16:24.927Z,10.75
2023-04-17T01:18:26.760Z,11.77
2023-04-17T01:20:30.210Z,11.60
2023-04-17T01:22:31.992Z,12.55
2023-04-17T01:24:33.854Z,11.23
2023-04-17T01:26:35.883Z,11.48
2023-04-17T01:28:37.546Z,12.50
2023-04-17T01:30:39.263Z,12.25
2023-04-17T01:32:41.569Z,14.07
2023-04-17T01:34:43.645Z,13.70
2023-04-17T01:36:45.346Z,14.10
2023-04-17T01:38:47.163Z,12.63
2023-04-17T01:40:48.833Z,11.82
2023-04-17T01:42:50.604Z,15.35
2023-04-17T01:44:52.659Z,14.32
2023-04-17T01:46:54.342Z,13.57
2023-04-17T01:48:56.159Z,14.45
2023-04-17T01:51:00.759Z,13.10
2023-04-17T01:53:02.427Z,11.07
2023-04-17T01:55:04.588Z,13.98
2023-04-17T01:57:06.229Z,12.38
2023-04-17T01:59:08.315Z,12.82
2023-04-17T02:01:10.066Z,17.25
2023-04-17T02:03:11.965Z,12.50
2023-04-17T02:05:13.710Z,13.52
2023-04-17T02:07:16.327Z,13.20
2023-04-17T02:09:18.008Z,12.07
2023-04-17T02:11:19.815Z,12.65
2023-04-17T02:13:21.511Z,13.38
2023-04-17T02:15:23.244Z,13.60
2023-04-17T02:17:25.015Z,12.13
2023-04-17T02:19:26.768Z,14.25
2023-04-17T02:21:28.436Z,12.52
2023-04-17T02:23:30.281Z,12.40
2023-04-17T02:25:32.515Z,12.13
2023-04-17T02:27:34.228Z,13.07
2023-04-17T02:29:36.576Z,12.45
2023-04-17T02:31:41.437Z,12.32
2023-04-17T02:33:43.216Z,13.15
2023-04-17T02:35:44.997Z,14.48
2023-04-17T02:37:46.791Z,13.05
2023-04-17T02:39:48.475Z,13.40
2023-04-17T02:41:50.261Z,14.07
2023-04-17T02:43:51.987Z,12.05
2023-04-17T02:45:53.790Z,13.60
2023-04-17T02:47:55.846Z,14.18
2023-04-17T02:50:00.231Z,14.13
2023-04-17T02:52:02.102Z,12.20
2023-04-17T02:54:03.950Z,13.98
2023-04-17T02:56:05.859Z,14.93
2023-04-17T02:58:07.591Z,14.50
2023-04-17T03:00:13.910Z,15.43
2023-04-17T03:02:15.816Z,13.85
2023-04-17T03:04:17.679Z,13.82
2023-04-17T03:06:19.422Z,14.13
2023-04-17T03:08:21.145Z,12.82
2023-04-17T03:10:22.840Z,14.23
2023-04-17T03:12:25.283Z,13.20
2023-04-17T03:14:27.014Z,14.40
2023-04-17T03:16:28.732Z,16.13
2023-04-17T03:18:31.142Z,22.80
2023-04-17T03:20:32.860Z,13.23
2023-04-17T03:22:34.916Z,15.25
2023-04-17T03:24:36.645Z,14.85
2023-04-17T03:26:38.399Z,12.88
2023-04-17T03:28:40.114Z,15.10
2023-04-17T03:30:44.971Z,13.65
2023-04-17T03:32:46.779Z,13.73
2023-04-17T03:34:48.458Z,12.90
2023-04-17T03:36:50.194Z,13.50
2023-04-17T03:38:51.899Z,13.57
2023-04-17T03:40:53.572Z,14.02
2023-04-17T03:42:55.488Z,14.48
2023-04-17T03:44:57.110Z,13.95
2023-04-17T03:46:58.808Z,13.32
2023-04-17T03:49:00.646Z,13.38
2023-04-17T03:51:03.364Z,15.02
2023-04-17T03:53:05.326Z,15.77
2023-04-17T03:55:08.539Z,16.27
2023-04-17T03:57:10.496Z,15.95
2023-04-17T03:59:12.479Z,14.82
2023-04-17T04:01:14.850Z,14.60
2023-04-17T04:03:16.759Z,15.55
2023-04-17T04:05:18.740Z,14.43
2023-04-17T04:07:21.580Z,15.43
2023-04-17T04:09:23.681Z,14.40
2023-04-17T04:11:25.392Z,14.02
2023-04-17T04:13:27.325Z,14.90
2023-04-17T04:15:29.071Z,15.90
2023-04-17T04:17:30.877Z,16.90
2023-04-17T04:19:32.594Z,14.27
2023-04-17T04:21:34.616Z,15.68
2023-04-17T04:23:41.425Z,15.82
2023-04-17T04:25:43.657Z,15.63
2023-04-17T04:27:49.658Z,15.80
2023-04-17T04:29:51.379Z,15.15
2023-04-17T04:31:53.636Z,14.93
2023-04-17T04:33:58.362Z,15.10
2023-04-17T04:36:01.474Z,15.50
2023-04-17T04:38:05.150Z,16.38
2023-04-17T04:40:16.414Z,16.60
2023-04-17T04:42:22.533Z,16.55
2023-04-17T04:44:24.433Z,16.92
2023-04-17T04:46:26.313Z,16.02
2023-04-17T04:48:29.387Z,16.63
2023-04-17T04:50:31.286Z,17.23
2023-04-17T04:52:33.014Z,17.63
2023-04-17T04:54:34.671Z,16.80
2023-04-17T04:56:36.332Z,16.75
2023-04-17T04:58:40.965Z,17.45
2023-04-17T05:00:43.723Z,17.65
2023-04-17T05:02:45.987Z,17.05
2023-04-17T05:04:47.794Z,15.35
2023-04-17T05:06:49.515Z,17.95
2023-04-17T05:08:52.190Z,14.60
2023-04-17T05:10:53.904Z,16.05
2023-04-17T05:12:55.678Z,18.08
2023-04-17T05:14:57.433Z,16.15
2023-04-17T05:16:59.202Z,16.13
2023-04-17T05:19:00.999Z,17.98
2023-04-17T05:21:02.694Z,17.85
2023-04-17T05:23:04.425Z,17.35
2023-04-17T05:25:06.321Z,17.65
2023-04-17T05:27:08.076Z,16.83
2023-04-17T05:29:10.130Z,15.57
2023-04-17T05:31:12.000Z,15.40
2023-04-17T05:33:13.805Z,17.13
2023-04-17T05:35:15.606Z,16.40
2023-04-17T05:37:17.271Z,16.55
2023-04-17T05:39:19.318Z,17.77
2023-04-17T05:41:21.010Z,15.77
2023-04-17T05:43:22.756Z,14.38
2023-04-17T05:45:25.744Z,17.00
2023-04-17T05:47:27.692Z,18.77
2023-04-17T05:49:29.654Z,18.10
2023-04-17T05:51:31.468Z,18.50
2023-04-17T05:53:33.375Z,18.55
2023-04-17T05:55:35.195Z,19.67
2023-04-17T05:57:36.908Z,20.90
2023-04-17T05:59:38.956Z,20.05
2023-04-17T06:01:40.785Z,19.83
2023-04-17T06:03:42.856Z,20.60
2023-04-17T06:05:47.051Z,18.73
2023-04-17T06:07:49.037Z,17.90
2023-04-17T06:09:50.733Z,19.48
2023-04-17T06:11:52.456Z,19.10
2023-04-17T06:13:54.199Z,20.67
2023-04-17T06:15:55.968Z,17.83
2023-04-17T06:17:57.732Z,17.48
2023-04-17T06:19:59.457Z,22.05
2023-04-17T06:22:01.269Z,17.85
2023-04-17T06:24:02.975Z,19.23
2023-04-17T06:26:04.724Z,18.15
2023-04-17T06:28:06.444Z,20.05
2023-04-17T06:30:08.818Z,18.60
2023-04-17T06:32:10.841Z,20.08
2023-04-17T06:34:18.542Z,20.75
2023-04-17T06:36:23.473Z,19.52
2023-04-17T06:38:25.330Z,18.00
2023-04-17T06:40:27.561Z,20.25
2023-04-17T06:42:29.530Z,19.52
2023-04-17T06:44:31.506Z,18.95
2023-04-17T06:46:33.460Z,19.33
2023-04-17T06:48:35.569Z,19.02
2023-04-17T06:50:37.545Z,20.65
2023-04-17T06:52:39.479Z,20.77
2023-04-17T06:54:44.743Z,18.55
2023-04-17T06:56:46.824Z,18.23
2023-04-17T06:58:49.082Z,18.23
2023-04-17T07:00:51.336Z,19.70
2023-04-17T07:02:53.714Z,20.48
2023-04-17T07:04:55.973Z,20.27
2023-04-17T07:06:58.484Z,19.73
2023-04-17T07:09:01.657Z,20.58
2023-04-17T07:11:06.977Z,19.90
2023-04-17T07:13:08.928Z,20.30
2023-04-17T07:15:11.299Z,18.33
2023-04-17T07:17:16.731Z,18.00
2023-04-17T07:19:26.624Z,20.63
2023-04-17T07:21:28.525Z,20.48
2023-04-17T07:23:30.420Z,19.70
2023-04-17T07:25:32.838Z,20.80
2023-04-17T07:27:34.672Z,20.95
2023-04-17T07:29:36.699Z,20.75
2023-04-17T07:31:38.911Z,20.35
2023-04-17T07:33:40.773Z,20.17
2023-04-17T07:35:43.523Z,20.00
2023-04-17T07:37:45.435Z,20.88
2023-04-17T07:39:50.247Z,19.80
2023-04-17T07:41:52.013Z,21.08
2023-04-17T07:43:53.738Z,19.58
2023-04-17T07:45:56.226Z,21.70
2023-04-17T07:47:58.030Z,19.65
2023-04-17T07:49:59.985Z,22.70
2023-04-17T07:52:01.707Z,20.70
2023-04-17T07:54:03.734Z,21.20
2023-04-17T07:56:06.567Z,19.10
2023-04-17T07:58:11.420Z,19.63
2023-04-17T08:00:14.816Z,18.92
2023-04-17T08:02:16.894Z,19.98
2023-04-17T08:04:22.152Z,19.88
2023-04-17T08:06:24.004Z,21.27
2023-04-17T08:08:25.869Z,21.02
2023-04-17T08:10:28.567Z,20.40
2023-04-17T08:12:30.511Z,21.08
2023-04-17T08:14:32.781Z,20.77
2023-04-17T08:16:34.478Z,20.42
2023-04-17T08:18:37.795Z,20.23
2023-04-17T08:20:40.252Z,22.35
2023-04-17T08:22:43.471Z,20.27
2023-04-17T08:24:45.195Z,18.77
2023-04-17T08:26:47.722Z,20.23
2023-04-17T08:28:49.644Z,20.15
2023-04-17T08:30:58.868Z,18.88
2023-04-17T08:33:00.622Z,21.27
2023-04-17T08:35:02.338Z,19.52
2023-04-17T08:37:03.988Z,18.65
2023-04-17T08:39:05.862Z,17.08
2023-04-17T08:41:10.403Z,17.35
2023-04-17T08:43:16.403Z,16.48
2023-04-17T08:45:18.485Z,16.02
2023-04-17T08:47:20.310Z,16.65
2023-04-17T08:49:22.104Z,14.60
2023-04-17T08:51:28.007Z,15.38
2023-04-17T08:53:29.731Z,14.68
2023-04-17T08:55:32.722Z,15.60
2023-04-17T08:57:34.777Z,14.40
2023-04-17T08:59:36.481Z,14.77
2023-04-17T09:01:38.169Z,16.02
2023-04-17T09:03:42.258Z,14.20
2023-04-17T09:05:46.488Z,15.52
2023-04-17T09:08:25.995Z,13.93
2023-04-17T09:10:40.725Z,13.43
2023-04-17T09:12:59.149Z,12.20
2023-04-17T09:15:23.689Z,11.68
2023-04-17T09:17:34.753Z,10.82
2023-04-17T09:19:36.851Z,9.15
2023-04-17T09:21:38.596Z,10.10
2023-04-17T09:23:48.539Z,8.73
2023-04-17T09:26:13.725Z,8.60
2023-04-17T09:28:16.265Z,7.50
2023-04-17T09:30:18.165Z,8.57
2023-04-17T09:32:19.972Z,7.35
2023-04-17T09:34:30.375Z,7.55
2023-04-17T09:36:35.173Z,6.60
2023-04-17T09:38:38.149Z,9.02
2023-04-17T09:40:41.299Z,7.60
2023-04-17T09:43:02.195Z,8.50
2023-04-17T09:45:19.775Z,9.20
2023-04-17T09:47:30.016Z,10.23
2023-04-17T09:49:55.964Z,12.93
2023-04-17T09:51:58.929Z,13.20
2023-04-17T09:54:05.688Z,12.60
2023-04-17T09:56:16.251Z,12.95
2023-04-17T09:58:19.009Z,12.45
2023-04-17T10:00:22.600Z,12.63
2023-04-17T10:02:24.802Z,31.63
2023-04-17T10:04:34.149Z,13.07
2023-04-17T10:06:36.902Z,11.50
2023-04-17T10:08:39.026Z,10.40
2023-04-17T10:10:41.076Z,7.55
2023-04-17T10:12:43.432Z,8.25
2023-04-17T10:14:49.069Z,8.60
2023-04-17T10:16:50.878Z,7.13
2023-04-17T10:19:24.118Z,7.68
2023-04-17T10:21:26.102Z,8.98
2023-04-17T10:23:34.721Z,9.73
2023-04-17T10:25:36.674Z,9.95
2023-04-17T10:27:39.019Z,8.02
2023-04-17T10:29:56.739Z,10.65
2023-04-17T10:32:11.069Z,11.13
2023-04-17T10:34:42.425Z,10.82
2023-04-17T10:36:45.532Z,10.90
2023-04-17T10:38:47.247Z,10.10
2023-04-17T10:40:50.905Z,10.50
2023-04-17T10:43:12.681Z,9.68
2023-04-17T10:45:20.201Z,9.60
2023-04-17T10:47:22.814Z,10.85
2023-04-17T10:49:24.885Z,12.27
2023-04-17T10:51:29.770Z,13.25
2023-04-17T10:53:45.105Z,9.35
2023-04-17T10:55:50.726Z,9.20
2023-04-17T10:58:05.556Z,9.30
2023-04-17T11:00:14.102Z,9.20
2023-04-17T11:02:16.474Z,8.90
2023-04-17T11:04:23.074Z,9.15
2023-04-17T11:06:31.661Z,7.65
2023-04-17T11:08:33.612Z,8.85
2023-04-17T11:10:37.412Z,8.43
2023-04-17T11:12:39.420Z,8.50
2023-04-17T11:14:43.250Z,9.38
2023-04-17T11:16:50.156Z,8.98
2023-04-17T11:18:52.448Z,8.68
2023-04-17T11:20:54.413Z,9.10
2023-04-17T11:22:58.429Z,9.00
2023-04-17T11:25:00.366Z,10.00
2023-04-17T11:27:03.715Z,11.00
2023-04-17T11:29:14.723Z,11.40
2023-04-17T11:31:18.660Z,11.23
2023-04-17T11:33:21.804Z,10.15
2023-04-17T11:35:27.781Z,11.63
2023-04-17T11:37:29.497Z,9.48
2023-04-17T11:39:33.719Z,10.95
2023-04-17T11:41:38.971Z,9.65
2023-04-17T11:43:40.846Z,9.52
2023-04-17T11:45:44.864Z,10.75
2023-04-17T11:47:48.082Z,9.07
2023-04-17T11:49:49.786Z,9.52
2023-04-17T11:51:52.186Z,9.75
2023-04-17T11:53:55.772Z,10.77
2023-04-17T11:56:18.257Z,10.55
2023-04-17T11:58:20.055Z,9.13
2023-04-17T12:00:27.482Z,11.32
2023-04-17T12:02:35.196Z,9.18
2023-04-17T12:04:38.248Z,9.43
2023-04-17T12:06:40.081Z,9.90
2023-04-17T12:08:50.577Z,10.10
2023-04-17T12:10:52.352Z,10.80
2023-04-17T12:12:54.032Z,11.18
2023-04-17T12:14:55.734Z,14.18
2023-04-17T12:16:57.435Z,13.40
2023-04-17T12:18:59.204Z,13.88
2023-04-17T12:21:08.873Z,14.23
2023-04-17T12:23:11.431Z,11.95
2023-04-17T12:25:13.220Z,12.88
2023-04-17T12:27:14.972Z,11.57
2023-04-17T12:29:17.825Z,11.95
2023-04-17T12:31:19.638Z,11.07
2023-04-17T12:33:21.376Z,12.52
2023-04-17T12:35:23.871Z,10.85
2023-04-17T12:37:26.442Z,10.55
2023-04-17T12:39:28.169Z,10.32
2023-04-17T12:41:30.306Z,11.02
2023-04-17T12:43:33.331Z,10.02
2023-04-17T12:45:35.066Z,9.25
2023-04-17T12:47:36.943Z,9.55
2023-04-17T12:49:38.610Z,8.25
2023-04-17T12:51:41.229Z,7.97
2023-04-17T12:53:43.197Z,8.57
2023-04-17T12:55:45.115Z,8.63
2023-04-17T12:57:47.214Z,7.38
2023-04-17T12:59:50.018Z,7.90
2023-04-17T13:01:51.788Z,7.30
2023-04-17T13:03:54.137Z,8.25
2023-04-17T13:05:55.995Z,7.45
2023-04-17T13:07:58.593Z,7.78
2023-04-17T13:10:00.362Z,6.25
2023-04-17T13:12:02.247Z,6.25
2023-04-17T13:14:04.037Z,9.63
2023-04-17T13:16:06.065Z,8.05
2023-04-17T13:18:08.399Z,7.15
2023-04-17T13:20:10.684Z,7.43
2023-04-17T13:22:12.536Z,8.23
2023-04-17T13:24:16.887Z,7.65
2023-04-17T13:26:20.450Z,7.07
2023-04-17T13:28:22.214Z,7.85
2023-04-17T13:30:25.060Z,9.48
2023-04-17T13:32:26.743Z,7.60
2023-04-17T13:34:28.507Z,7.93
2023-04-17T13:36:31.627Z,7.38
2023-04-17T13:38:37.573Z,8.55
2023-04-17T13:40:40.988Z,8.63
2023-04-17T13:42:42.751Z,8.90
2023-04-17T13:44:44.469Z,9.80
2023-04-17T13:46:46.639Z,8.05
2023-04-17T13:48:48.469Z,9.65
2023-04-17T13:50:50.144Z,8.00
2023-04-17T13:52:51.859Z,9.45
2023-04-17T13:54:53.519Z,8.77
2023-04-17T13:56:55.287Z,6.50
2023-04-17T13:58:57.591Z,7.72
2023-04-17T14:00:59.203Z,7.43
2023-04-17T14:03:01.026Z,7.47
2023-04-17T14:05:03.036Z,10.18
2023-04-17T14:07:04.902Z,7.30
2023-04-17T14:09:07.550Z,7.55
2023-04-17T14:11:09.201Z,8.00
2023-04-17T14:13:11.025Z,7.82
2023-04-17T14:15:13.269Z,7.95
2023-04-17T14:17:15.051Z,6.82
2023-04-17T14:19:17.688Z,6.05
2023-04-17T14:21:21.934Z,6.22
2023-04-17T14:23:23.677Z,4.43
2023-04-17T14:25:25.343Z,4.25
2023-04-17T14:27:27.354Z,2.75
2023-04-17T14:29:29.076Z,3.10
2023-04-17T14:31:31.578Z,2.83
2023-04-17T14:33:33.392Z,3.72
2023-04-17T14:35:35.091Z,3.35
2023-04-17T14:37:37.287Z,3.38
2023-04-17T14:39:41.588Z,3.10
2023-04-17T14:41:43.339Z,2.78
2023-04-17T14:43:45.222Z,2.88
2023-04-17T14:45:47.185Z,3.10
2023-04-17T14:47:48.954Z,3.28
2023-04-17T14:49:51.055Z,3.47
2023-04-17T14:51:52.788Z,2.95
2023-04-17T14:53:54.668Z,3.33
2023-04-17T14:55:56.346Z,3.15
2023-04-17T14:57:58.076Z,2.13
2023-04-17T15:00:00.262Z,3.00
2023-04-17T15:02:02.274Z,2.40
2023-04-17T15:04:04.210Z,2.47
2023-04-17T15:06:06.053Z,2.15
2023-04-17T15:08:07.889Z,2.22
2023-04-17T15:10:10.110Z,2.10
2023-04-17T15:12:12.336Z,6.82
2023-04-17T15:14:14.036Z,2.33
2023-04-17T15:16:16.030Z,2.38
2023-04-17T15:18:17.762Z,2.72
2023-04-17T15:20:24.890Z,7.78
2023-04-17T15:22:27.186Z,2.20
2023-04-17T15:24:28.876Z,2.97
2023-04-17T15:26:30.703Z,2.63
2023-04-17T15:28:34.017Z,2.58
2023-04-17T15:30:35.664Z,2.13
2023-04-17T15:32:37.658Z,4.45
2023-04-17T15:34:40.361Z,3.00
2023-04-17T15:36:42.072Z,2.85
2023-04-17T15:38:44.325Z,4.25
2023-04-17T15:40:45.983Z,2.30
2023-04-17T15:42:47.700Z,2.55
2023-04-17T15:44:49.455Z,3.90
2023-04-17T15:46:51.206Z,4.55
2023-04-17T15:49:07.447Z,2.50
2023-04-17T15:51:14.557Z,3.17
2023-04-17T15:53:16.378Z,2.58
2023-04-17T15:55:18.168Z,2.63
2023-04-17T15:57:19.920Z,2.75
2023-04-17T15:59:21.621Z,2.78
2023-04-17T16:01:23.344Z,2.80
2023-04-17T16:03:25.577Z,4.95
2023-04-17T16:05:29.686Z,3.80
2023-04-17T16:07:32.086Z,3.40
2023-04-17T16:09:33.828Z,3.10
2023-04-17T16:11:35.649Z,3.72
2023-04-17T16:13:37.356Z,2.97
2023-04-17T16:15:39.086Z,3.40
2023-04-17T16:17:41.859Z,3.05
2023-04-17T16:19:43.572Z,4.20
2023-04-17T16:21:45.408Z,4.75
2023-04-17T16:23:48.878Z,3.22
2023-04-17T16:25:51.334Z,6.25
2023-04-17T16:27:53.077Z,3.13
2023-04-17T16:29:54.768Z,3.20
2023-04-17T16:31:56.806Z,3.15
2023-04-17T16:33:58.619Z,2.95
2023-04-17T16:36:00.364Z,3.63
2023-04-17T16:38:05.299Z,3.38
2023-04-17T16:40:07.737Z,3.67
2023-04-17T16:42:10.010Z,4.65
2023-04-17T16:44:11.902Z,5.25
2023-04-17T16:46:23.940Z,4.07
2023-04-17T16:48:30.359Z,2.75
2023-04-17T16:50:32.096Z,4.00
2023-04-17T16:52:33.814Z,3.60
2023-04-17T16:54:35.626Z,3.53
2023-04-17T16:56:37.360Z,3.35
2023-04-17T16:58:39.239Z,2.85
2023-04-17T17:00:40.921Z,4.03
2023-04-17T17:02:42.780Z,2.85
2023-04-17T17:04:45.948Z,3.85
2023-04-17T17:06:47.684Z,4.97
2023-04-17T17:08:49.635Z,3.17
2023-04-17T17:10:51.625Z,4.18
2023-04-17T17:12:53.380Z,3.97
2023-04-17T17:14:55.059Z,4.15
2023-04-17T17:16:56.767Z,3.25
2023-04-17T17:18:58.634Z,3.78
2023-04-17T17:21:01.940Z,3.17
2023-04-17T17:23:03.757Z,2.92
2023-04-17T17:25:06.028Z,3.10
2023-04-17T17:27:07.853Z,2.33
2023-04-17T17:29:09.624Z,5.18
2023-04-17T17:31:11.415Z,2.60
2023-04-17T17:33:13.187Z,4.20
2023-04-17T17:35:14.949Z,3.42
2023-04-17T17:37:16.722Z,4.00
2023-04-17T17:39:18.432Z,3.08
2023-04-17T17:41:20.134Z,3.13
2023-04-17T17:43:22.348Z,3.33
2023-04-17T17:45:24.037Z,3.90
2023-04-17T17:47:25.987Z,3.22
2023-04-17T17:49:28.227Z,3.33
2023-04-17T17:51:29.959Z,4.43
2023-04-17T17:53:31.670Z,4.13
2023-04-17T17:55:37.401Z,3.80
2023-04-17T17:57:48.953Z,3.63
2023-04-17T17:59:51.351Z,4.10
2023-04-17T18:01:53.623Z,4.60
2023-04-17T18:03:55.803Z,3.03
2023-04-17T18:05:57.900Z,6.55
2023-04-17T18:07:59.586Z,3.03
2023-04-17T18:10:01.217Z,3.47
2023-04-17T18:12:03.884Z,3.65
2023-04-17T18:14:05.740Z,3.40
2023-04-17T18:16:07.715Z,6.95
2023-04-17T18:18:10.301Z,3.88
2023-04-17T18:20:12.235Z,6.85
2023-04-17T18:22:13.934Z,4.60
2023-04-17T18:24:15.825Z,3.72
2023-04-17T18:26:17.624Z,3.80
2023-04-17T18:28:19.367Z,4.43
2023-04-17T18:30:21.046Z,3.97
2023-04-17T18:32:22.798Z,3.60
2023-04-17T18:34:24.580Z,5.80
2023-04-17T18:36:26.354Z,4.07
2023-04-17T18:38:28.066Z,3.55
2023-04-17T18:40:30.735Z,3.75
2023-04-17T18:42:32.523Z,3.63
2023-04-17T18:44:34.255Z,3.17
2023-04-17T18:46:36.128Z,3.42
2023-04-17T18:48:38.101Z,6.60
2023-04-17T18:50:39.753Z,3.83
2023-04-17T18:52:45.540Z,5.35
2023-04-17T18:54:50.069Z,5.03
2023-04-17T18:56:51.845Z,3.92
2023-04-17T18:58:53.535Z,4.00
2023-04-17T19:00:55.389Z,4.75
2023-04-17T19:02:57.706Z,4.78
2023-04-17T19:04:59.631Z,4.07
2023-04-17T19:07:02.821Z,3.78
2023-04-17T19:09:04.571Z,3.97
2023-04-17T19:11:06.243Z,4.03
2023-04-17T19:13:09.942Z,4.40
2023-04-17T19:15:11.964Z,4.10
2023-04-17T19:17:13.836Z,4.10
2023-04-17T19:19:15.781Z,3.88
2023-04-17T19:21:17.585Z,4.22
2023-04-17T19:23:19.347Z,5.32
2023-04-17T19:25:21.017Z,4.68
2023-04-17T19:27:24.119Z,3.85
2023-04-17T19:29:26.913Z,3.78
2023-04-17T19:31:28.668Z,5.28
2023-04-17T19:33:34.231Z,4.15
2023-04-17T19:35:35.900Z,4.30
2023-04-17T19:37:37.605Z,3.85
2023-04-17T19:39:39.257Z,3.90
2023-04-17T19:41:42.380Z,5.60
2023-04-17T19:43:49.980Z,3.97
2023-04-17T19:45:51.784Z,4.20
2023-04-17T19:47:57.188Z,4.35
2023-04-17T19:49:59.050Z,4.50
2023-04-17T19:52:01.130Z,4.22
2023-04-17T19:54:02.797Z,4.38
2023-04-17T19:56:08.319Z,4.72
2023-04-17T19:58:10.389Z,5.25
2023-04-17T20:00:12.820Z,5.72
2023-04-17T20:02:16.049Z,6.70
2023-04-17T20:04:17.898Z,4.68
2023-04-17T20:06:19.888Z,9.82
2023-04-17T20:08:21.973Z,7.25
2023-04-17T20:10:23.810Z,5.75
2023-04-17T20:12:25.626Z,4.30
2023-04-17T20:14:27.315Z,4.85
2023-04-17T20:16:29.138Z,3.92
2023-04-17T20:18:31.520Z,5.15
2023-04-17T20:20:34.970Z,6.22
2023-04-17T20:22:39.733Z,4.68
2023-04-17T20:24:41.379Z,9.35
2023-04-17T20:26:44.355Z,4.72
2023-04-17T20:28:46.104Z,4.70
2023-04-17T20:30:47.836Z,5.68
2023-04-17T20:32:49.759Z,4.80
2023-04-17T20:34:51.663Z,4.78
2023-04-17T20:36:53.457Z,5.35
2023-04-17T20:38:55.373Z,4.53
2023-04-17T20:40:57.048Z,4.47
2023-04-17T20:42:58.791Z,12.02
2023-04-17T20:45:00.495Z,5.40
2023-04-17T20:47:02.258Z,6.72
2023-04-17T20:49:03.993Z,5.63
2023-04-17T20:51:06.046Z,6.80
2023-04-17T20:53:07.786Z,4.55
2023-04-17T20:55:09.685Z,4.65
2023-04-17T20:57:11.437Z,4.43
2023-04-17T20:59:13.218Z,4.22
2023-04-17T21:01:15.929Z,5.50
2023-04-17T21:03:17.813Z,4.18
2023-04-17T21:05:19.758Z,5.40
2023-04-17T21:07:21.533Z,5.55
2023-04-17T21:09:23.961Z,6.25
2023-04-17T21:11:25.755Z,5.50
2023-04-17T21:13:27.489Z,5.75
2023-04-17T21:15:29.172Z,5.75
2023-04-17T21:17:31.300Z,5.85
2023-04-17T21:19:35.996Z,8.00
2023-04-17T21:21:37.779Z,5.75
2023-04-17T21:23:39.516Z,6.55
2023-04-17T21:25:41.195Z,9.52
2023-04-17T21:27:43.905Z,5.28
2023-04-17T21:29:45.655Z,8.55
2023-04-17T21:31:47.504Z,6.55
2023-04-17T21:33:49.245Z,8.57
2023-04-17T21:35:50.914Z,6.78
2023-04-17T21:37:52.611Z,7.97
2023-04-17T21:39:54.751Z,7.68
2023-04-17T21:41:59.295Z,7.20
2023-04-17T21:44:02.671Z,8.90
2023-04-17T21:46:09.390Z,7.70
2023-04-17T21:48:11.110Z,6.97
2023-04-17T21:50:12.900Z,7.13
2023-04-17T21:52:15.954Z,6.78
2023-04-17T21:54:17.623Z,6.10
2023-04-17T21:56:19.437Z,6.28
2023-04-17T21:58:21.113Z,6.93
2023-04-17T22:00:22.824Z,6.75
2023-04-17T22:02:24.786Z,6.43
2023-04-17T22:04:27.234Z,7.28
2023-04-17T22:06:29.076Z,6.53
2023-04-17T22:08:30.769Z,5.88
2023-04-17T22:10:32.600Z,5.53
2023-04-17T22:12:34.329Z,4.97
2023-04-17T22:14:36.000Z,5.32
2023-04-17T22:16:37.789Z,5.00
2023-04-17T22:18:39.599Z,7.03
2023-04-17T22:20:41.350Z,4.90
2023-04-17T22:22:43.046Z,5.55
2023-04-17T22:24:44.693Z,7.28
2023-04-17T22:26:46.515Z,5.90
2023-04-17T22:28:48.241Z,6.18
2023-04-17T22:30:51.955Z,5.97
2023-04-17T22:32:53.778Z,5.82
2023-04-17T22:34:55.517Z,6.65
2023-04-17T22:36:57.181Z,5.90
2023-04-17T22:38:58.857Z,11.10
2023-04-17T22:41:00.558Z,6.65
2023-04-17T22:43:02.289Z,5.57
2023-04-17T22:45:04.520Z,6.38
2023-04-17T22:47:06.217Z,6.05
2023-04-17T22:49:08.290Z,10.73
2023-04-17T22:51:09.968Z,5.63
2023-04-17T22:53:12.018Z,8.18
2023-04-17T22:55:14.030Z,6.03
2023-04-17T22:57:15.784Z,6.47
2023-04-17T22:59:17.447Z,6.32
2023-04-17T23:01:19.166Z,6.70
2023-04-17T23:03:24.027Z,5.68
2023-04-17T23:05:25.807Z,8.25
2023-04-17T23:07:30.092Z,9.15
2023-04-17T23:09:31.693Z,7.05
2023-04-17T23:11:34.075Z,12.93
2023-04-17T23:13:35.833Z,7.25
2023-04-17T23:15:37.573Z,6.18
2023-04-17T23:17:39.518Z,7.63
2023-04-17T23:19:41.506Z,6.60
2023-04-17T23:21:43.190Z,20.88
2023-04-17T23:23:48.503Z,8.18
2023-04-17T23:25:50.883Z,6.93
2023-04-17T23:27:52.666Z,8.02
2023-04-17T23:29:54.356Z,7.10
2023-04-17T23:31:56.465Z,7.25
2023-04-17T23:33:58.134Z,10.50
2023-04-17T23:35:59.865Z,7.97
2023-04-17T23:38:01.546Z,17.65
2023-04-17T23:40:03.442Z,8.43
2023-04-17T23:42:07.976Z,6.00
2023-04-17T23:44:09.951Z,9.02
2023-04-17T23:46:11.726Z,6.18
2023-04-17T23:48:13.479Z,5.82
2023-04-17T23:50:15.287Z,7.22
2023-04-17T23:52:19.017Z,6.78
2023-04-17T23:54:21.329Z,6.22
2023-04-17T23:56:23.781Z,6.63
2023-04-17T23:58:25.645Z,7.85
